Time;durP1;ratioP1;P1;durP2;ratioP2;P2;SDS_P1;SDS_P2;PMS_P1;PMS_P2;Temp;Humidity;BMP_temperature;BMP_pressure;BME280_temperature;BME280_humidity;BME280_pressure;Samples;Min_cycle;Max_cycle;Signal;HPM_P1;HPM_P2
2021/12/29 00:01:11;;;;;;;11.15;2.33;;;8.20;99.90;;;;;;5031880;28;20033;-73
2021/12/29 00:03:40;;;;;;;12.13;1.83;;;8.20;99.90;;;;;;5019661;28;20147;-72
2021/12/29 00:06:15;;;;;;;8.15;2.22;;;8.20;99.90;;;;;;5020508;28;20020;-72
2021/12/29 00:08:41;;;;;;;12.05;2.22;;;8.20;99.90;;;;;;5035760;28;20016;-73
2021/12/29 00:11:07;;;;;;;7.65;1.48;;;8.20;99.90;;;;;;5034679;28;20603;-72
2021/12/29 00:13:33;;;;;;;9.73;1.67;;;8.20;99.90;;;;;;5020844;28;20030;-72
2021/12/29 00:16:00;;;;;;;11.25;1.98;;;8.20;99.90;;;;;;5020002;28;20124;-72
2021/12/29 00:18:29;;;;;;;8.82;1.65;;;8.30;99.90;;;;;;5042765;28;20091;-73
2021/12/29 00:20:56;;;;;;;9.65;1.73;;;8.30;99.90;;;;;;5032188;28;20030;-72
2021/12/29 00:23:22;;;;;;;9.25;1.40;;;8.30;99.90;;;;;;5015988;28;20108;-73
2021/12/29 00:25:48;;;;;;;9.80;1.48;;;8.30;99.90;;;;;;5024470;28;20040;-73
2021/12/29 00:28:20;;;;;;;15.60;2.00;;;8.30;99.90;;;;;;5034237;28;20017;-73
2021/12/29 00:30:45;;;;;;;7.60;1.40;;;8.20;99.90;;;;;;5034630;28;20025;-73
2021/12/29 00:33:14;;;;;;;9.88;1.88;;;8.20;99.90;;;;;;5031369;28;20049;-73
2021/12/29 00:35:42;;;;;;;6.18;1.50;;;8.20;99.90;;;;;;5029611;28;20033;-73
2021/12/29 00:38:10;;;;;;;10.88;1.77;;;8.30;99.90;;;;;;5030984;28;20389;-73
2021/12/29 00:40:37;;;;;;;8.73;2.40;;;8.20;99.90;;;;;;5029748;28;20201;-73
2021/12/29 00:43:09;;;;;;;8.77;2.45;;;8.20;99.90;;;;;;5008330;28;20029;-73
2021/12/29 00:45:39;;;;;;;12.50;2.03;;;8.20;99.90;;;;;;5028268;28;20083;-73
2021/12/29 00:48:10;;;;;;;9.77;1.80;;;8.20;99.90;;;;;;5013507;28;20066;-73
2021/12/29 00:50:36;;;;;;;7.38;1.70;;;8.20;99.90;;;;;;5028706;28;20096;-73
2021/12/29 00:53:02;;;;;;;9.63;2.30;;;8.20;99.90;;;;;;5015233;28;20087;-73
2021/12/29 00:55:30;;;;;;;6.32;1.40;;;8.20;99.90;;;;;;5027298;28;20030;-73
2021/12/29 00:57:59;;;;;;;8.38;1.98;;;8.20;99.90;;;;;;5034364;28;20056;-73
2021/12/29 01:00:28;;;;;;;7.82;1.30;;;8.20;99.90;;;;;;5025822;28;20029;-73
2021/12/29 01:02:57;;;;;;;9.43;1.70;;;8.20;99.90;;;;;;5018083;28;20105;-73
2021/12/29 01:05:26;;;;;;;7.25;1.75;;;8.20;99.90;;;;;;5013830;28;20048;-73
2021/12/29 01:07:52;;;;;;;6.72;1.67;;;8.20;99.90;;;;;;5027076;28;20014;-73
2021/12/29 01:10:18;;;;;;;4.25;1.15;;;8.20;99.90;;;;;;5019664;28;20038;-73
2021/12/29 01:12:52;;;;;;;4.15;0.90;;;8.20;99.90;;;;;;5031697;28;20061;-73
2021/12/29 01:15:24;;;;;;;;;;;8.30;99.90;;;;;;5027157;22;20045;-74
2021/12/29 01:17:55;;;;;;;8.13;1.33;;;8.20;99.90;;;;;;4989461;28;19913;-74
2021/12/29 01:20:21;;;;;;;4.72;1.20;;;8.30;99.90;;;;;;4988699;28;20026;-74
2021/12/29 01:22:48;;;;;;;4.43;1.30;;;8.30;99.90;;;;;;4994070;28;20062;-74
2021/12/29 01:25:14;;;;;;;8.68;1.10;;;8.30;99.90;;;;;;4988385;28;20026;-74
2021/12/29 01:27:43;;;;;;;7.35;1.80;;;8.30;99.90;;;;;;4984748;28;20033;-73
2021/12/29 01:30:10;;;;;;;8.52;1.10;;;8.30;99.90;;;;;;4995255;28;20541;-73
2021/12/29 01:32:41;;;;;;;6.63;1.08;;;8.30;99.90;;;;;;4994154;28;20027;-73
2021/12/29 01:35:08;;;;;;;3.65;1.05;;;8.30;99.90;;;;;;4991868;28;20022;-73
2021/12/29 01:37:34;;;;;;;8.18;1.30;;;8.30;99.90;;;;;;4992293;28;20511;-73
2021/12/29 01:40:01;;;;;;;4.95;1.48;;;8.30;99.90;;;;;;4979246;28;20062;-74
2021/12/29 01:42:30;;;;;;;3.47;0.95;;;8.30;99.90;;;;;;4995616;28;20072;-74
2021/12/29 01:44:59;;;;;;;3.60;0.80;;;8.30;99.90;;;;;;4987731;28;20387;-74
2021/12/29 01:47:30;;;;;;;4.70;0.90;;;8.30;99.90;;;;;;4988343;28;20031;-74
2021/12/29 01:50:00;;;;;;;7.00;1.45;;;8.20;99.90;;;;;;4981089;28;20109;-74
2021/12/29 01:52:30;;;;;;;3.13;0.80;;;8.20;99.90;;;;;;4989463;28;20483;-74
2021/12/29 01:54:56;;;;;;;3.28;0.88;;;8.30;99.90;;;;;;4990937;28;20030;-74
2021/12/29 01:57:22;;;;;;;5.00;0.88;;;8.20;99.90;;;;;;4974252;28;20514;-74
2021/12/29 01:59:48;;;;;;;3.08;0.82;;;8.20;99.90;;;;;;4993191;28;20038;-74
2021/12/29 02:02:14;;;;;;;5.43;1.10;;;8.20;99.90;;;;;;4987391;28;20042;-74
2021/12/29 02:04:45;;;;;;;3.30;0.80;;;8.20;99.90;;;;;;4978481;28;20141;-74
2021/12/29 02:07:11;;;;;;;4.07;1.23;;;8.20;99.90;;;;;;4995401;28;20042;-74
2021/12/29 02:09:37;;;;;;;5.97;1.20;;;8.20;99.90;;;;;;4992093;28;20101;-74
2021/12/29 02:12:04;;;;;;;5.38;1.13;;;8.10;99.90;;;;;;4971878;28;20065;-74
2021/12/29 02:14:30;;;;;;;4.80;0.75;;;8.20;99.90;;;;;;4987106;28;20402;-74
2021/12/29 02:16:56;;;;;;;2.63;0.60;;;8.20;99.90;;;;;;4974866;28;20487;-74
2021/12/29 02:19:28;;;;;;;6.20;1.35;;;8.10;99.90;;;;;;4980854;28;20084;-74
2021/12/29 02:22:06;;;;;;;5.93;0.88;;;8.20;99.90;;;;;;4990833;28;20030;-74
2021/12/29 02:24:38;;;;;;;6.45;1.05;;;8.10;99.90;;;;;;4991459;28;20483;-74
2021/12/29 02:27:06;;;;;;;3.85;1.00;;;8.10;99.90;;;;;;4992373;28;20363;-74
2021/12/29 02:29:33;;;;;;;2.53;0.68;;;8.10;99.90;;;;;;4993977;28;20025;-74
2021/12/29 02:31:59;;;;;;;4.28;0.90;;;8.10;99.90;;;;;;4987156;28;20659;-74
2021/12/29 02:34:25;;;;;;;4.90;1.02;;;8.10;99.90;;;;;;4973710;28;20045;-73
2021/12/29 02:36:59;;;;;;;7.25;0.90;;;8.10;99.90;;;;;;4994894;28;20053;-74
2021/12/29 02:39:24;;;;;;;;;;;8.10;99.90;;;;;;5001862;28;20113;-73
2021/12/29 02:41:54;;;;;;;6.25;1.45;;;8.10;99.90;;;;;;4993401;28;20053;-73
2021/12/29 02:44:27;;;;;;;6.47;1.10;;;8.10;99.90;;;;;;4990204;28;20109;-73
2021/12/29 02:47:00;;;;;;;4.10;0.80;;;8.10;99.90;;;;;;4974354;28;20029;-75
2021/12/29 02:49:26;;;;;;;8.05;1.00;;;8.10;99.90;;;;;;4995192;28;20057;-75
2021/12/29 02:51:58;;;;;;;6.22;1.30;;;8.10;99.90;;;;;;4990861;28;20383;-75
2021/12/29 02:54:23;;;;;;;3.83;0.90;;;8.10;99.90;;;;;;4988089;28;20026;-73
2021/12/29 02:56:54;;;;;;;3.78;0.73;;;8.10;99.90;;;;;;4990233;28;20057;-73
2021/12/29 02:59:21;;;;;;;5.20;1.30;;;8.20;99.90;;;;;;4976594;28;20038;-73
2021/12/29 03:01:47;;;;;;;5.53;1.00;;;8.10;99.90;;;;;;4992248;28;20085;-73
2021/12/29 03:04:15;;;;;;;5.50;1.08;;;8.20;99.90;;;;;;4990832;28;20030;-73
2021/12/29 03:06:41;;;;;;;6.35;0.88;;;8.10;99.90;;;;;;4991785;28;20018;-74
2021/12/29 03:09:10;;;;;;;3.10;0.80;;;8.20;99.90;;;;;;4994277;28;20038;-74
2021/12/29 03:11:36;;;;;;;4.53;0.70;;;8.20;99.90;;;;;;4995852;28;20030;-73
2021/12/29 03:14:05;;;;;;;3.47;0.82;;;8.20;99.90;;;;;;4989218;28;20035;-74
2021/12/29 03:16:33;;;;;;;5.22;0.93;;;8.20;99.90;;;;;;4989945;28;20478;-74
2021/12/29 03:18:59;;;;;;;2.45;0.75;;;8.20;99.90;;;;;;4977885;28;20031;-74
2021/12/29 03:21:24;;;;;;;3.28;1.02;;;8.20;99.90;;;;;;4984633;28;20045;-74
2021/12/29 03:23:50;;;;;;;4.53;0.88;;;8.20;99.90;;;;;;4992759;28;20018;-75
2021/12/29 03:26:16;;;;;;;3.22;0.77;;;8.20;99.90;;;;;;4988326;28;20031;-75
2021/12/29 03:28:43;;;;;;;3.22;0.82;;;8.20;99.90;;;;;;4991008;28;20065;-74
2021/12/29 03:31:14;;;;;;;8.75;1.20;;;8.20;99.90;;;;;;4970311;28;20029;-74
2021/12/29 03:33:41;;;;;;;4.90;1.05;;;8.20;99.90;;;;;;4989470;28;20072;-73
2021/12/29 03:36:08;;;;;;;6.22;0.70;;;8.20;99.90;;;;;;4992172;28;20487;-74
2021/12/29 03:38:36;;;;;;;5.05;1.30;;;8.20;99.90;;;;;;4993526;28;20491;-74
2021/12/29 03:41:05;;;;;;;2.53;0.60;;;8.20;99.90;;;;;;4994413;28;20077;-74
2021/12/29 03:43:32;;;;;;;3.70;0.68;;;8.30;99.90;;;;;;4991585;28;20057;-73
2021/12/29 03:46:04;;;;;;;5.85;0.75;;;8.20;99.90;;;;;;4994894;28;20018;-74
2021/12/29 03:48:34;;;;;;;5.43;0.68;;;8.20;99.90;;;;;;4972329;28;20058;-74
2021/12/29 03:51:04;;;;;;;6.07;0.90;;;8.30;99.90;;;;;;4991781;28;20451;-74
2021/12/29 03:53:36;;;;;;;5.43;0.95;;;8.30;99.90;;;;;;4973624;28;20040;-73
2021/12/29 03:56:03;;;;;;;3.83;0.60;;;8.30;99.90;;;;;;4993507;28;20034;-74
2021/12/29 03:58:29;;;;;;;4.40;0.50;;;8.20;99.90;;;;;;4973494;28;20403;-74
2021/12/29 04:01:03;;;;;;;4.20;0.75;;;8.30;99.90;;;;;;4993359;28;20023;-74
2021/12/29 04:03:32;;;;;;;5.45;0.98;;;8.30;99.90;;;;;;4991156;28;20136;-76
2021/12/29 04:05:58;;;;;;;3.75;1.00;;;8.30;99.90;;;;;;4988398;28;20038;-75
2021/12/29 04:08:24;;;;;;;2.55;0.40;;;8.30;99.90;;;;;;4973194;28;20170;-75
2021/12/29 04:10:49;;;;;;;1.75;0.40;;;8.30;99.90;;;;;;4992569;28;20034;-75
2021/12/29 04:13:15;;;;;;;3.33;0.70;;;8.30;99.90;;;;;;4992972;28;20042;-73
2021/12/29 04:15:41;;;;;;;3.03;0.68;;;8.30;99.90;;;;;;4990044;28;20034;-73
2021/12/29 04:18:25;;;;;;;2.47;0.50;;;8.30;99.90;;;;;;4992322;28;20026;-75
2021/12/29 04:20:58;;;;;;;5.43;0.60;;;8.30;99.90;;;;;;4991679;28;20030;-75
2021/12/29 04:23:28;;;;;;;2.80;0.68;;;8.30;99.90;;;;;;4970836;28;20050;-75
2021/12/29 04:25:54;;;;;;;4.68;0.75;;;8.30;99.90;;;;;;4994471;28;20088;-74
2021/12/29 04:28:23;;;;;;;5.60;0.50;;;8.30;99.90;;;;;;4996172;28;20026;-73
2021/12/29 04:30:59;;;;;;;2.95;0.70;;;8.20;99.90;;;;;;4994990;28;20138;-73
2021/12/29 04:33:31;;;;;;;5.72;0.93;;;8.20;99.90;;;;;;4999366;28;20521;-73
2021/12/29 04:35:57;;;;;;;2.22;0.50;;;8.30;99.90;;;;;;4992300;28;20072;-75
2021/12/29 04:38:24;;;;;;;2.33;0.40;;;8.30;99.90;;;;;;4973276;28;20034;-75
2021/12/29 04:40:52;;;;;;;2.25;0.60;;;8.30;99.90;;;;;;4971513;28;20027;-75
2021/12/29 04:43:18;;;;;;;3.30;0.70;;;8.30;99.90;;;;;;4989658;28;20026;-75
2021/12/29 04:45:47;;;;;;;4.03;0.88;;;8.40;99.90;;;;;;4989867;28;20034;-74
2021/12/29 04:48:14;;;;;;;1.23;0.40;;;8.40;99.90;;;;;;4986218;28;20018;-74
2021/12/29 04:51:02;;;;;;;3.28;0.50;;;8.40;99.90;;;;;;4986199;28;20361;-74
2021/12/29 04:53:33;;;;;;;2.83;0.55;;;8.40;99.90;;;;;;4990457;28;20126;-74
2021/12/29 04:56:02;;;;;;;3.95;0.75;;;8.40;99.90;;;;;;4986786;28;20039;-74
2021/12/29 04:58:36;;;;;;;2.95;1.05;;;8.40;99.90;;;;;;4971298;28;20037;-75
2021/12/29 05:01:02;;;;;;;1.75;0.63;;;8.40;99.90;;;;;;4986451;28;20033;-75
2021/12/29 05:03:28;;;;;;;3.20;0.60;;;8.40;99.90;;;;;;4988015;28;20026;-74
2021/12/29 05:08:34;;;;;;;2.40;0.73;;;8.40;99.90;;;;;;4982098;28;20041;-73
2021/12/29 05:11:05;;;;;;;3.83;0.60;;;8.40;99.90;;;;;;4966199;28;20026;-73
2021/12/29 05:13:34;;;;;;;6.20;0.80;;;8.40;99.90;;;;;;4966508;28;20038;-74
2021/12/29 05:16:00;;;;;;;3.65;0.60;;;8.40;99.90;;;;;;4987662;28;20034;-74
2021/12/29 05:18:28;;;;;;;2.65;0.70;;;8.40;99.90;;;;;;4970862;28;20419;-74
2021/12/29 05:20:55;;;;;;;3.42;0.55;;;8.30;99.90;;;;;;4965858;28;20038;-75
2021/12/29 05:23:21;;;;;;;5.00;1.27;;;8.40;99.90;;;;;;4987794;28;20077;-75
2021/12/29 05:25:49;;;;;;;1.92;0.43;;;8.30;99.90;;;;;;4971159;28;20026;-75
2021/12/29 05:28:17;;;;;;;4.10;0.43;;;8.30;99.90;;;;;;4983315;28;20033;-74
2021/12/29 05:30:47;;;;;;;2.92;0.52;;;8.30;99.90;;;;;;4986702;28;21400;-75
2021/12/29 05:33:14;;;;;;;1.52;0.55;;;8.30;99.90;;;;;;4983416;28;20038;-74
2021/12/29 05:35:40;;;;;;;2.55;0.63;;;8.30;99.90;;;;;;4988527;28;20023;-74
2021/12/29 05:38:06;;;;;;;1.02;0.40;;;8.30;99.90;;;;;;4962952;28;20022;-74
2021/12/29 05:40:32;;;;;;;4.97;0.50;;;8.30;99.90;;;;;;4990141;28;20034;-74
2021/12/29 05:42:58;;;;;;;3.28;0.68;;;8.30;99.90;;;;;;4989659;28;20045;-74
2021/12/29 05:45:26;;;;;;;2.13;0.45;;;8.40;99.90;;;;;;4984999;28;20033;-74
2021/12/29 05:47:52;;;;;;;6.60;0.73;;;8.40;99.90;;;;;;4988651;28;20126;-75
2021/12/29 05:50:21;;;;;;;2.25;0.60;;;8.40;99.90;;;;;;4985875;28;20113;-74
2021/12/29 05:52:47;;;;;;;5.57;0.50;;;8.30;99.90;;;;;;4965783;28;20034;-75
2021/12/29 05:55:19;;;;;;;4.53;0.68;;;8.30;99.90;;;;;;4982371;28;20748;-73
2021/12/29 05:57:44;;;;;;;2.05;0.43;;;8.30;99.90;;;;;;4983259;28;20045;-74
2021/12/29 06:00:15;;;;;;;4.63;0.68;;;8.30;99.90;;;;;;4983826;28;20105;-74
2021/12/29 06:02:41;;;;;;;2.15;0.47;;;8.30;99.90;;;;;;4963697;28;20034;-73
2021/12/29 06:05:08;;;;;;;2.50;0.50;;;8.20;99.90;;;;;;4992728;28;20052;-73
2021/12/29 06:07:35;;;;;;;1.15;0.40;;;8.20;99.90;;;;;;4991088;28;20034;-73
2021/12/29 06:10:01;;;;;;;2.13;0.50;;;8.20;99.90;;;;;;4975554;28;20081;-74
2021/12/29 06:12:27;;;;;;;1.63;0.63;;;8.20;99.90;;;;;;4990605;28;20053;-74
2021/12/29 06:14:52;;;;;;;4.22;0.40;;;8.20;99.90;;;;;;4974719;28;20108;-74
2021/12/29 06:17:18;;;;;;;2.30;0.40;;;8.20;99.90;;;;;;4988198;28;20022;-75
2021/12/29 06:19:44;;;;;;;0.80;0.30;;;8.20;99.90;;;;;;4980313;28;20027;-74
2021/12/29 06:22:11;;;;;;;2.05;0.40;;;8.20;99.90;;;;;;4971141;28;20427;-74
2021/12/29 06:24:39;;;;;;;2.83;0.60;;;8.20;99.90;;;;;;4974211;28;20031;-73
2021/12/29 06:27:04;;;;;;;2.55;0.80;;;8.20;99.90;;;;;;4991089;28;20034;-73
2021/12/29 06:29:30;;;;;;;1.60;0.60;;;8.20;99.90;;;;;;4973175;28;20034;-74
2021/12/29 06:32:00;;;;;;;3.67;0.40;;;8.20;99.90;;;;;;4990124;28;20481;-74
2021/12/29 06:34:26;;;;;;;2.97;0.55;;;8.20;99.90;;;;;;4973624;28;20135;-73
2021/12/29 06:36:52;;;;;;;1.23;0.35;;;8.20;99.90;;;;;;4994048;28;20476;-73
2021/12/29 06:39:18;;;;;;;3.50;0.50;;;8.20;99.90;;;;;;4991629;28;20045;-73
2021/12/29 06:41:45;;;;;;;2.33;0.40;;;8.20;99.90;;;;;;4973769;28;20026;-72
2021/12/29 06:44:11;;;;;;;1.48;0.32;;;8.20;99.90;;;;;;4989346;28;20407;-71
2021/12/29 06:46:37;;;;;;;1.17;0.50;;;8.20;99.90;;;;;;4988207;28;20035;-72
2021/12/29 06:49:03;;;;;;;3.88;0.77;;;8.20;99.90;;;;;;4977469;28;20018;-73
2021/12/29 06:51:29;;;;;;;1.63;0.40;;;8.20;99.90;;;;;;4971993;28;20030;-71
2021/12/29 06:53:55;;;;;;;3.67;0.50;;;8.20;99.90;;;;;;4991459;28;20514;-72
2021/12/29 06:56:20;;;;;;;2.42;0.40;;;8.20;99.90;;;;;;4987237;28;20030;-73
2021/12/29 06:58:46;;;;;;;1.75;0.40;;;8.20;99.90;;;;;;4991225;28;20077;-72
2021/12/29 07:01:13;;;;;;;2.50;0.50;;;8.20;99.90;;;;;;4970349;28;20030;-72
2021/12/29 07:03:39;;;;;;;3.63;0.50;;;8.20;99.90;;;;;;4994743;28;20022;-72
2021/12/29 07:06:05;;;;;;;6.03;2.28;;;8.20;99.90;;;;;;4980807;28;20509;-72
2021/12/29 07:08:31;;;;;;;1.80;0.90;;;8.30;99.90;;;;;;4994466;28;20570;-72
2021/12/29 07:10:56;;;;;;;2.85;0.60;;;8.30;99.90;;;;;;4990760;28;20546;-74
2021/12/29 07:13:22;;;;;;;4.05;0.90;;;8.20;99.90;;;;;;4990294;28;20034;-72
2021/12/29 07:15:48;;;;;;;1.90;0.40;;;8.20;99.90;;;;;;5026776;23;20137;-74
2021/12/29 07:18:14;;;;;;;1.75;0.52;;;8.30;99.90;;;;;;5004462;28;20029;-75
2021/12/29 07:20:40;;;;;;;1.77;0.50;;;8.30;99.90;;;;;;5006606;28;20108;-74
2021/12/29 07:23:06;;;;;;;2.47;0.45;;;8.30;99.90;;;;;;5010676;28;20026;-73
2021/12/29 07:25:31;;;;;;;0.75;0.40;;;8.30;99.90;;;;;;5011898;28;20038;-73
2021/12/29 07:27:57;;;;;;;2.92;0.47;;;8.30;99.90;;;;;;5010533;28;20022;-72
2021/12/29 07:30:23;;;;;;;0.70;0.40;;;8.30;99.90;;;;;;5008488;28;20029;-73
2021/12/29 07:32:48;;;;;;;2.05;0.40;;;8.30;99.90;;;;;;5010232;28;20024;-72
2021/12/29 07:35:14;;;;;;;2.95;0.52;;;8.30;99.90;;;;;;5010401;28;20030;-72
2021/12/29 07:37:40;;;;;;;2.72;0.50;;;8.30;99.90;;;;;;5029855;28;20087;-72
2021/12/29 07:40:08;;;;;;;3.55;0.50;;;8.40;99.90;;;;;;5010728;28;20426;-72
2021/12/29 07:42:35;;;;;;;2.67;0.50;;;8.40;99.90;;;;;;5008423;28;20430;-72
2021/12/29 07:45:03;;;;;;;0.80;0.30;;;8.40;99.90;;;;;;5007940;28;20028;-72
2021/12/29 07:47:29;;;;;;;1.65;0.43;;;8.40;99.90;;;;;;5007409;28;20026;-73
2021/12/29 07:49:54;;;;;;;1.23;0.32;;;8.40;99.90;;;;;;5006382;28;20377;-72
2021/12/29 07:52:20;;;;;;;1.35;0.40;;;8.40;99.90;;;;;;5015342;28;20125;-73
2021/12/29 07:54:45;;;;;;;3.20;0.40;;;8.50;99.90;;;;;;5007785;28;20037;-73
2021/12/29 07:57:13;;;;;;;1.67;0.40;;;8.50;99.90;;;;;;5012126;28;20322;-72
2021/12/29 07:59:42;;;;;;;3.20;0.75;;;8.50;99.90;;;;;;5006377;28;20030;-72
2021/12/29 08:02:14;;;;;;;1.88;1.05;;;8.50;99.90;;;;;;5013935;28;20037;-73
2021/12/29 08:04:40;;;;;;;1.48;0.40;;;8.50;99.90;;;;;;5009660;28;20030;-72
2021/12/29 08:07:08;;;;;;;2.25;0.47;;;8.60;99.90;;;;;;5005811;28;20391;-72
2021/12/29 08:09:34;;;;;;;2.97;0.50;;;8.60;99.90;;;;;;5009053;28;20032;-73
2021/12/29 08:12:00;;;;;;;2.90;0.75;;;8.60;99.90;;;;;;5009216;28;20029;-72
2021/12/29 08:14:25;;;;;;;2.88;0.70;;;8.60;99.90;;;;;;5011598;28;20041;-72
2021/12/29 08:16:51;;;;;;;4.07;0.82;;;8.70;99.90;;;;;;5019624;28;20034;-72
2021/12/29 08:19:17;;;;;;;3.10;0.50;;;8.70;99.90;;;;;;5007748;28;20044;-72
2021/12/29 08:21:42;;;;;;;2.10;0.50;;;8.80;99.90;;;;;;5008809;28;20072;-72
2021/12/29 08:24:08;;;;;;;7.80;1.08;;;8.80;99.90;;;;;;5010937;28;20030;-73
2021/12/29 08:26:34;;;;;;;2.95;0.40;;;8.80;99.90;;;;;;5012422;28;20101;-72
2021/12/29 08:29:01;;;;;;;2.28;0.38;;;8.80;99.90;;;;;;5012565;28;20025;-72
2021/12/29 08:31:27;;;;;;;3.17;0.55;;;8.80;99.90;;;;;;5012592;28;20037;-72
2021/12/29 08:33:54;;;;;;;3.13;0.57;;;8.80;99.90;;;;;;5014512;28;20510;-74
2021/12/29 08:36:24;;;;;;;2.70;0.60;;;8.90;99.90;;;;;;5008464;28;20021;-72
2021/12/29 08:38:50;;;;;;;2.72;0.75;;;8.90;99.90;;;;;;5013051;28;20038;-72
2021/12/29 08:41:16;;;;;;;1.80;0.73;;;8.90;99.90;;;;;;5005270;28;20038;-74
2021/12/29 08:43:41;;;;;;;0.73;0.45;;;8.90;99.90;;;;;;4997866;28;20103;-73
2021/12/29 08:46:07;;;;;;;6.00;0.93;;;9.00;99.90;;;;;;5003537;28;20044;-73
2021/12/29 08:48:37;;;;;;;3.67;0.60;;;9.00;99.90;;;;;;5008865;28;20052;-74
2021/12/29 08:51:03;;;;;;;2.33;0.47;;;9.10;99.90;;;;;;5007359;28;20038;-74
2021/12/29 08:53:29;;;;;;;4.35;1.05;;;9.10;99.90;;;;;;5000858;28;20042;-74
2021/12/29 08:55:57;;;;;;;4.85;0.82;;;9.10;99.90;;;;;;5011646;28;20541;-74
2021/12/29 08:58:26;;;;;;;4.85;0.63;;;9.10;99.90;;;;;;5007921;28;20034;-74
2021/12/29 09:00:54;;;;;;;2.60;0.70;;;9.10;99.90;;;;;;5007801;28;20065;-73
2021/12/29 09:03:20;;;;;;;4.05;0.80;;;9.10;99.90;;;;;;5010846;28;20032;-73
2021/12/29 09:05:46;;;;;;;4.38;0.90;;;9.20;99.90;;;;;;5007845;28;20041;-73
2021/12/29 09:08:12;;;;;;;2.75;0.55;;;9.20;99.90;;;;;;5009712;28;20037;-73
2021/12/29 09:10:38;;;;;;;3.40;0.68;;;9.20;99.90;;;;;;5006594;28;20030;-73
2021/12/29 09:13:04;;;;;;;3.35;0.57;;;9.20;99.90;;;;;;5002414;28;22470;-72
2021/12/29 09:15:31;;;;;;;2.50;0.88;;;9.20;99.90;;;;;;5006028;28;20482;-72
2021/12/29 09:17:59;;;;;;;2.88;0.70;;;9.20;99.90;;;;;;5007713;28;20481;-75
2021/12/29 09:20:31;;;;;;;3.50;0.80;;;9.30;99.90;;;;;;5013852;28;20026;-72
2021/12/29 09:23:23;;;;;;;3.00;0.95;;;9.20;99.90;;;;;;5009702;28;20037;-72
2021/12/29 09:25:55;;;;;;;2.17;0.75;;;9.30;99.90;;;;;;5002952;28;20045;-72
2021/12/29 09:28:22;;;;;;;2.25;0.50;;;9.30;99.90;;;;;;5001349;28;20037;-73
2021/12/29 09:30:49;;;;;;;4.40;0.85;;;9.30;99.90;;;;;;5001801;28;20033;-72
2021/12/29 09:33:16;;;;;;;6.22;1.08;;;9.30;99.90;;;;;;5007222;28;20023;-72
2021/12/29 09:35:42;;;;;;;4.03;0.65;;;9.40;99.90;;;;;;5007365;28;20032;-73
2021/12/29 09:38:08;;;;;;;2.72;0.80;;;9.50;99.90;;;;;;5015923;28;20096;-73
2021/12/29 09:40:36;;;;;;;3.30;0.98;;;9.50;99.90;;;;;;5007343;28;20037;-74
2021/12/29 09:43:03;;;;;;;4.63;0.80;;;9.60;99.90;;;;;;5011295;28;20061;-73
2021/12/29 09:45:30;;;;;;;1.98;0.55;;;9.60;99.90;;;;;;5013011;28;20021;-74
2021/12/29 09:47:57;;;;;;;3.95;0.73;;;9.70;99.90;;;;;;5010531;28;20490;-74
2021/12/29 09:50:23;;;;;;;2.05;0.68;;;9.70;99.90;;;;;;5016543;28;20030;-73
2021/12/29 09:52:49;;;;;;;5.00;0.90;;;9.70;99.90;;;;;;5017482;28;20069;-73
2021/12/29 09:55:21;;;;;;;3.55;0.98;;;9.80;99.90;;;;;;5010868;28;20053;-73
2021/12/29 09:57:49;;;;;;;1.58;0.65;;;9.80;99.90;;;;;;5011454;28;20612;-73
2021/12/29 10:00:26;;;;;;;3.22;0.80;;;9.80;99.90;;;;;;5012725;28;20107;-75
2021/12/29 10:02:54;;;;;;;2.83;0.80;;;9.90;99.90;;;;;;5010054;28;20037;-73
2021/12/29 10:05:20;;;;;;;4.47;0.75;;;9.90;99.90;;;;;;5011941;28;20030;-73
2021/12/29 10:08:01;;;;;;;4.18;0.85;;;9.90;99.90;;;;;;5008128;28;20084;-73
2021/12/29 10:10:28;;;;;;;5.15;1.30;;;9.90;99.90;;;;;;5021140;28;20091;-73
2021/12/29 10:12:55;;;;;;;3.45;0.82;;;10.00;99.90;;;;;;5005176;28;20026;-73
2021/12/29 10:15:30;;;;;;;3.70;1.05;;;10.00;99.90;;;;;;5008088;28;20687;-73
2021/12/29 10:18:15;;;;;;;1.67;0.60;;;10.00;99.90;;;;;;5004487;28;20038;-72
2021/12/29 10:20:49;;;;;;;1.80;0.80;;;10.10;99.90;;;;;;5007903;28;20026;-73
2021/12/29 10:23:25;;;;;;;1.55;0.47;;;10.10;99.90;;;;;;5016590;28;20057;-73
2021/12/29 10:25:54;;;;;;;3.08;0.90;;;10.10;99.90;;;;;;5014250;28;20438;-73
2021/12/29 10:28:29;;;;;;;4.32;1.00;;;10.20;99.90;;;;;;5010875;28;20021;-74
2021/12/29 10:31:05;;;;;;;2.92;0.90;;;10.20;99.90;;;;;;5009123;28;20430;-74
2021/12/29 10:33:34;;;;;;;6.32;1.10;;;10.30;99.90;;;;;;5013255;28;20550;-73
2021/12/29 10:36:20;;;;;;;3.25;0.90;;;10.30;99.90;;;;;;5012882;28;20061;-73
2021/12/29 10:38:54;;;;;;;3.15;1.15;;;10.30;99.90;;;;;;5006159;28;20041;-74
2021/12/29 10:41:20;;;;;;;9.27;1.27;;;10.30;99.90;;;;;;5014131;28;20498;-73
2021/12/29 10:43:57;;;;;;;4.57;1.20;;;10.30;99.90;;;;;;5017776;28;20026;-73
2021/12/29 10:46:24;;;;;;;2.72;1.00;;;10.30;99.90;;;;;;5016374;28;20017;-74
2021/12/29 10:48:59;;;;;;;4.88;1.40;;;10.40;99.90;;;;;;5015135;28;20029;-73
2021/12/29 10:51:31;;;;;;;12.77;2.60;;;10.40;99.90;;;;;;5025416;28;20390;-74
2021/12/29 10:54:15;;;;;;;6.38;1.45;;;10.40;99.90;;;;;;5016144;28;20064;-75
2021/12/29 10:56:45;;;;;;;8.32;1.65;;;10.40;99.90;;;;;;5011067;28;20026;-74
2021/12/29 10:59:21;;;;;;;4.50;0.95;;;10.40;99.90;;;;;;5016237;28;20480;-74
2021/12/29 11:01:47;;;;;;;6.15;1.90;;;10.30;99.90;;;;;;5009617;28;20037;-73
2021/12/29 11:04:15;;;;;;;7.88;1.20;;;10.40;99.90;;;;;;5014709;28;20116;-73
2021/12/29 11:06:44;;;;;;;4.82;1.35;;;10.40;99.90;;;;;;5015638;28;20478;-74
2021/12/29 11:09:12;;;;;;;7.15;1.95;;;10.30;99.90;;;;;;5009778;28;20558;-74
2021/12/29 11:11:49;;;;;;;5.93;1.70;;;10.30;99.90;;;;;;5015824;28;20040;-73
2021/12/29 11:14:24;;;;;;;5.65;1.50;;;10.30;99.90;;;;;;5011351;28;20080;-73
2021/12/29 11:17:01;;;;;;;5.05;1.55;;;10.40;99.90;;;;;;5013346;28;20493;-74
2021/12/29 11:19:27;;;;;;;6.32;1.88;;;10.40;99.90;;;;;;5013626;28;20030;-73
2021/12/29 11:22:03;;;;;;;5.55;2.00;;;10.40;99.90;;;;;;5010938;28;20037;-73
2021/12/29 11:24:39;;;;;;;9.13;1.67;;;10.40;99.90;;;;;;5014155;28;20022;-73
2021/12/29 11:27:16;;;;;;;6.03;1.45;;;10.40;99.90;;;;;;5012155;28;20022;-74
2021/12/29 11:29:59;;;;;;;8.73;2.03;;;10.40;99.90;;;;;;5010788;28;20344;-73
2021/12/29 11:32:34;;;;;;;5.10;2.13;;;10.40;99.90;;;;;;5010561;28;20025;-73
2021/12/29 11:35:08;;;;;;;6.63;2.03;;;10.40;99.90;;;;;;4999662;28;20117;-73
2021/12/29 11:37:45;;;;;;;6.00;2.05;;;10.40;99.90;;;;;;4998127;28;20037;-74
2021/12/29 11:40:15;;;;;;;6.13;1.88;;;10.40;99.90;;;;;;5009252;28;20137;-73
2021/12/29 11:42:41;;;;;;;10.93;2.88;;;10.40;99.90;;;;;;5006827;28;20026;-72
2021/12/29 11:45:08;;;;;;;6.47;1.75;;;10.50;99.90;;;;;;5010546;28;20390;-73
2021/12/29 11:47:34;;;;;;;8.27;2.15;;;10.50;99.90;;;;;;5009341;28;20041;-74
2021/12/29 11:50:00;;;;;;;5.93;1.65;;;10.60;99.90;;;;;;5008163;28;20053;-74
2021/12/29 11:52:42;;;;;;;8.30;2.40;;;10.60;99.90;;;;;;5011611;28;20022;-75
2021/12/29 11:55:14;;;;;;;12.30;2.50;;;10.70;99.90;;;;;;5014897;28;20451;-73
2021/12/29 11:57:40;;;;;;;7.88;2.22;;;10.70;99.90;;;;;;5014610;28;20148;-73
2021/12/29 12:00:14;;;;;;;7.55;2.00;;;10.70;99.90;;;;;;5007031;28;20490;-75
2021/12/29 12:02:41;;;;;;;6.45;2.22;;;10.80;99.90;;;;;;5003682;28;20022;-73
2021/12/29 12:05:16;;;;;;;5.57;2.40;;;10.80;99.90;;;;;;5008909;28;20034;-73
2021/12/29 12:07:42;;;;;;;9.82;2.33;;;10.80;99.90;;;;;;4975596;28;20128;-73
2021/12/29 12:10:12;;;;;;;7.25;2.97;;;10.80;99.90;;;;;;5009809;28;20782;-74
2021/12/29 12:12:46;;;;;;;10.15;1.80;;;10.80;99.90;;;;;;5013178;28;20101;-74
2021/12/29 12:15:13;;;;;;;9.10;2.60;;;10.80;99.90;;;;;;5008439;28;20025;-73
2021/12/29 12:17:54;;;;;;;8.18;2.05;;;10.80;99.90;;;;;;5008273;28;20072;-74
2021/12/29 12:20:20;;;;;;;12.25;3.03;;;10.70;99.90;;;;;;5012256;28;20421;-74
2021/12/29 12:22:51;;;;;;;7.40;2.25;;;10.70;99.90;;;;;;5024851;28;20022;-74
2021/12/29 12:25:29;;;;;;;11.95;2.47;;;10.60;99.90;;;;;;5010013;28;20025;-74
2021/12/29 12:28:01;;;;;;;8.50;1.95;;;10.60;99.90;;;;;;5001912;28;20065;-74
2021/12/29 12:30:49;;;;;;;10.32;2.95;;;10.60;99.90;;;;;;5005910;28;20030;-74
2021/12/29 12:33:17;;;;;;;7.93;2.28;;;10.60;99.90;;;;;;5008556;28;20112;-74
2021/12/29 12:35:48;;;;;;;7.40;2.28;;;10.70;99.90;;;;;;5015682;28;20025;-74
2021/12/29 12:38:21;;;;;;;12.65;2.63;;;10.80;99.90;;;;;;5018925;28;20104;-73
2021/12/29 12:41:09;;;;;;;7.05;1.98;;;11.00;99.90;;;;;;5006958;28;20022;-74
2021/12/29 12:43:53;;;;;;;10.80;2.45;;;11.00;99.90;;;;;;5009765;28;20051;-74
2021/12/29 12:46:32;;;;;;;7.53;2.30;;;11.00;99.90;;;;;;5011259;28;20116;-74
2021/12/29 12:49:10;;;;;;;9.30;2.50;;;11.00;99.90;;;;;;5009361;28;20558;-75
2021/12/29 12:51:36;;;;;;;6.88;1.98;;;11.00;99.90;;;;;;5010459;28;20053;-73
2021/12/29 12:54:15;;;;;;;6.80;2.38;;;11.00;99.90;;;;;;5013932;28;20034;-75
2021/12/29 12:56:46;;;;;;;6.53;1.42;;;10.90;99.90;;;;;;5007436;28;20018;-73
2021/12/29 12:59:12;;;;;;;8.73;2.30;;;10.90;99.90;;;;;;5016687;28;20816;-72
2021/12/29 13:01:45;;;;;;;9.32;2.33;;;11.00;99.90;;;;;;5003936;28;20344;-73
2021/12/29 13:04:15;;;;;;;10.52;2.40;;;10.90;99.90;;;;;;5005497;28;20018;-72
2021/12/29 13:06:45;;;;;;;7.82;2.10;;;11.00;99.90;;;;;;5012797;28;20156;-72